sensor_id;sensor_type;location;lat;lon;timestamp;pressure;altitude;pressure_sealevel;temperature;humidity
48424;BME280;34232;42.502;26.014;2023-03-08T00:01:58;99358.84;;;8.59;69.08
48424;BME280;34232;42.502;26.014;2023-03-08T00:04:23;99359.69;;;8.59;69.53
48424;BME280;34232;42.502;26.014;2023-03-08T00:06:48;99356.41;;;8.67;69.43
48424;BME280;34232;42.502;26.014;2023-03-08T00:09:14;99358.63;;;8.71;69.24
48424;BME280;34232;42.502;26.014;2023-03-08T00:11:39;99359.22;;;8.75;69.25
48424;BME280;34232;42.502;26.014;2023-03-08T00:14:04;99357.25;;;8.77;69.32
48424;BME280;34232;42.502;26.014;2023-03-08T00:16:30;99355.34;;;8.79;69.16
48424;BME280;34232;42.502;26.014;2023-03-08T00:18:55;99357.69;;;8.82;69.31
48424;BME280;34232;42.502;26.014;2023-03-08T00:21:20;99360.06;;;8.85;68.94
48424;BME280;34232;42.502;26.014;2023-03-08T00:23:46;99355.78;;;8.84;67.63
48424;BME280;34232;42.502;26.014;2023-03-08T00:26:11;99359.22;;;8.85;66.88
48424;BME280;34232;42.502;26.014;2023-03-08T00:28:36;99352.72;;;8.79;66.42
48424;BME280;34232;42.502;26.014;2023-03-08T00:31:03;99355.88;;;8.73;65.81
48424;BME280;34232;42.502;26.014;2023-03-08T00:33:29;99351.97;;;8.67;64.96
48424;BME280;34232;42.502;26.014;2023-03-08T00:36:01;99351.66;;;8.61;65.29
48424;BME280;34232;42.502;26.014;2023-03-08T00:38:27;99345.56;;;8.51;65.90
48424;BME280;34232;42.502;26.014;2023-03-08T00:40:52;99358.09;;;8.47;66.13
48424;BME280;34232;42.502;26.014;2023-03-08T00:43:18;99347.31;;;8.40;66.36
48424;BME280;34232;42.502;26.014;2023-03-08T00:45:43;99350.44;;;8.34;66.65
48424;BME280;34232;42.502;26.014;2023-03-08T00:48:08;99347.88;;;8.23;67.82
48424;BME280;34232;42.502;26.014;2023-03-08T00:50:34;99343.13;;;8.17;68.61
48424;BME280;34232;42.502;26.014;2023-03-08T00:52:59;99340.63;;;8.16;68.42
48424;BME280;34232;42.502;26.014;2023-03-08T00:55:24;99336.47;;;8.13;68.50
48424;BME280;34232;42.502;26.014;2023-03-08T00:57:49;99334.81;;;8.12;69.17
48424;BME280;34232;42.502;26.014;2023-03-08T01:00:16;99335.63;;;8.13;69.01
48424;BME280;34232;42.502;26.014;2023-03-08T01:02:41;99337.19;;;7.94;70.76
48424;BME280;34232;42.502;26.014;2023-03-08T01:05:07;99339.41;;;7.99;70.94
48424;BME280;34232;42.502;26.014;2023-03-08T01:07:32;99339.63;;;8.07;71.24
48424;BME280;34232;42.502;26.014;2023-03-08T01:09:57;99337.00;;;8.07;70.99
48424;BME280;34232;42.502;26.014;2023-03-08T01:12:23;99336.47;;;8.13;71.08
48424;BME280;34232;42.502;26.014;2023-03-08T01:14:49;99333.22;;;8.21;70.09
48424;BME280;34232;42.502;26.014;2023-03-08T01:17:15;99330.75;;;8.29;70.00
48424;BME280;34232;42.502;26.014;2023-03-08T01:19:40;99333.88;;;8.34;70.02
48424;BME280;34232;42.502;26.014;2023-03-08T01:22:05;99331.13;;;8.35;69.25
48424;BME280;34232;42.502;26.014;2023-03-08T01:24:31;99325.28;;;8.32;68.81
48424;BME280;34232;42.502;26.014;2023-03-08T01:26:56;99326.13;;;8.32;68.59
48424;BME280;34232;42.502;26.014;2023-03-08T01:29:24;99331.88;;;8.26;68.97
48424;BME280;34232;42.502;26.014;2023-03-08T01:31:50;99328.09;;;8.19;68.94
48424;BME280;34232;42.502;26.014;2023-03-08T01:34:15;99328.34;;;8.16;68.75
48424;BME280;34232;42.502;26.014;2023-03-08T01:36:40;99331.22;;;8.13;68.71
48424;BME280;34232;42.502;26.014;2023-03-08T01:39:05;99331.75;;;8.07;69.16
48424;BME280;34232;42.502;26.014;2023-03-08T01:41:31;99336.78;;;7.99;69.72
48424;BME280;34232;42.502;26.014;2023-03-08T01:43:56;99334.94;;;7.90;70.61
48424;BME280;34232;42.502;26.014;2023-03-08T01:46:26;99328.03;;;7.89;70.40
48424;BME280;34232;42.502;26.014;2023-03-08T01:51:19;99329.97;;;7.87;69.99
48424;BME280;34232;42.502;26.014;2023-03-08T01:53:45;99331.63;;;7.88;70.83
48424;BME280;34232;42.502;26.014;2023-03-08T01:56:12;99327.22;;;7.88;70.99
48424;BME280;34232;42.502;26.014;2023-03-08T01:58:38;99326.25;;;7.89;70.90
48424;BME280;34232;42.502;26.014;2023-03-08T02:01:04;99326.97;;;7.91;70.65
48424;BME280;34232;42.502;26.014;2023-03-08T02:03:29;99329.72;;;7.90;70.42
48424;BME280;34232;42.502;26.014;2023-03-08T02:05:55;99329.97;;;7.87;70.95
48424;BME280;34232;42.502;26.014;2023-03-08T02:08:20;99324.97;;;7.84;69.95
48424;BME280;34232;42.502;26.014;2023-03-08T02:10:46;99327.59;;;7.84;69.46
48424;BME280;34232;42.502;26.014;2023-03-08T02:13:11;99326.16;;;7.80;68.75
48424;BME280;34232;42.502;26.014;2023-03-08T02:15:36;99330.50;;;7.69;69.06
48424;BME280;34232;42.502;26.014;2023-03-08T02:18:02;99335.03;;;7.67;69.28
48424;BME280;34232;42.502;26.014;2023-03-08T02:20:34;99332.00;;;7.62;68.94
48424;BME280;34232;42.502;26.014;2023-03-08T02:23:07;99334.38;;;7.54;69.13
48424;BME280;34232;42.502;26.014;2023-03-08T02:25:33;99333.69;;;7.52;69.40
48424;BME280;34232;42.502;26.014;2023-03-08T02:27:58;99327.97;;;7.47;68.61
48424;BME280;34232;42.502;26.014;2023-03-08T02:30:27;99338.97;;;7.41;68.78
48424;BME280;34232;42.502;26.014;2023-03-08T02:32:54;99334.84;;;7.27;69.30
48424;BME280;34232;42.502;26.014;2023-03-08T02:35:19;99343.25;;;7.31;69.08
48424;BME280;34232;42.502;26.014;2023-03-08T02:37:44;99347.09;;;7.27;68.51
48424;BME280;34232;42.502;26.014;2023-03-08T02:40:10;99353.06;;;7.18;69.58
48424;BME280;34232;42.502;26.014;2023-03-08T02:42:36;99352.72;;;7.11;69.55
48424;BME280;34232;42.502;26.014;2023-03-08T02:45:01;99362.84;;;7.05;69.90
48424;BME280;34232;42.502;26.014;2023-03-08T02:47:26;99358.34;;;6.95;69.58
48424;BME280;34232;42.502;26.014;2023-03-08T02:49:51;99357.97;;;6.89;70.18
48424;BME280;34232;42.502;26.014;2023-03-08T02:52:17;99360.22;;;6.82;71.11
48424;BME280;34232;42.502;26.014;2023-03-08T02:54:42;99357.59;;;6.82;71.51
48424;BME280;34232;42.502;26.014;2023-03-08T02:57:07;99354.31;;;6.80;72.25
48424;BME280;34232;42.502;26.014;2023-03-08T02:59:32;99349.06;;;6.80;72.51
48424;BME280;34232;42.502;26.014;2023-03-08T03:01:58;99356.66;;;6.83;73.37
48424;BME280;34232;42.502;26.014;2023-03-08T03:04:24;99358.22;;;6.86;73.10
48424;BME280;34232;42.502;26.014;2023-03-08T03:06:52;99355.25;;;6.90;72.68
48424;BME280;34232;42.502;26.014;2023-03-08T03:09:17;99374.03;;;6.95;71.50
48424;BME280;34232;42.502;26.014;2023-03-08T03:11:43;99370.19;;;6.99;70.48
48424;BME280;34232;42.502;26.014;2023-03-08T03:14:08;99371.88;;;7.00;69.08
48424;BME280;34232;42.502;26.014;2023-03-08T03:16:33;99364.28;;;6.97;69.06
48424;BME280;34232;42.502;26.014;2023-03-08T03:19:00;99369.03;;;6.92;68.65
48424;BME280;34232;42.502;26.014;2023-03-08T03:21:25;99375.56;;;6.87;69.08
48424;BME280;34232;42.502;26.014;2023-03-08T03:23:50;99369.75;;;6.83;69.51
48424;BME280;34232;42.502;26.014;2023-03-08T03:26:18;99369.75;;;6.83;68.36
48424;BME280;34232;42.502;26.014;2023-03-08T03:28:43;99380.19;;;6.83;68.25
48424;BME280;34232;42.502;26.014;2023-03-08T03:31:12;99375.81;;;6.84;68.47
48424;BME280;34232;42.502;26.014;2023-03-08T03:33:38;99372.25;;;6.85;67.98
48424;BME280;34232;42.502;26.014;2023-03-08T03:36:04;99374.28;;;6.81;67.50
48424;BME280;34232;42.502;26.014;2023-03-08T03:38:30;99378.09;;;6.77;67.91
48424;BME280;34232;42.502;26.014;2023-03-08T03:41:07;99377.59;;;6.72;68.38
48424;BME280;34232;42.502;26.014;2023-03-08T03:43:34;99374.97;;;6.61;67.91
48424;BME280;34232;42.502;26.014;2023-03-08T03:46:00;99375.22;;;6.47;68.23
48424;BME280;34232;42.502;26.014;2023-03-08T03:48:26;99366.25;;;6.27;68.52
48424;BME280;34232;42.502;26.014;2023-03-08T03:51:00;99370.88;;;6.23;70.07
48424;BME280;34232;42.502;26.014;2023-03-08T03:53:29;99372.78;;;6.21;71.10
48424;BME280;34232;42.502;26.014;2023-03-08T03:55:55;99377.16;;;6.21;72.33
48424;BME280;34232;42.502;26.014;2023-03-08T03:58:25;99368.59;;;6.19;72.60
48424;BME280;34232;42.502;26.014;2023-03-08T04:00:50;99387.38;;;6.13;73.62
48424;BME280;34232;42.502;26.014;2023-03-08T04:03:16;99388.00;;;6.16;73.61
48424;BME280;34232;42.502;26.014;2023-03-08T04:05:41;99384.88;;;6.11;73.51
48424;BME280;34232;42.502;26.014;2023-03-08T04:08:06;99387.72;;;6.08;74.43
48424;BME280;34232;42.502;26.014;2023-03-08T04:10:32;99387.59;;;6.10;75.26
48424;BME280;34232;42.502;26.014;2023-03-08T04:12:58;99385.22;;;6.18;74.61
48424;BME280;34232;42.502;26.014;2023-03-08T04:15:23;99384.91;;;6.22;76.02
48424;BME280;34232;42.502;26.014;2023-03-08T04:17:49;99389.28;;;6.22;75.72
48424;BME280;34232;42.502;26.014;2023-03-08T04:20:14;99390.84;;;6.24;75.63
48424;BME280;34232;42.502;26.014;2023-03-08T04:22:40;99391.78;;;6.23;73.53
48424;BME280;34232;42.502;26.014;2023-03-08T04:25:05;99397.72;;;6.14;71.02
48424;BME280;34232;42.502;26.014;2023-03-08T04:27:30;99395.56;;;6.08;70.56
48424;BME280;34232;42.502;26.014;2023-03-08T04:29:55;99394.22;;;6.03;70.89
48424;BME280;34232;42.502;26.014;2023-03-08T04:32:21;99389.34;;;5.98;71.55
48424;BME280;34232;42.502;26.014;2023-03-08T04:34:46;99391.34;;;5.94;72.04
48424;BME280;34232;42.502;26.014;2023-03-08T04:37:11;99394.75;;;5.84;73.24
48424;BME280;34232;42.502;26.014;2023-03-08T04:39:37;99402.56;;;5.84;74.09
48424;BME280;34232;42.502;26.014;2023-03-08T04:42:02;99400.19;;;5.81;73.98
48424;BME280;34232;42.502;26.014;2023-03-08T04:44:27;99396.13;;;5.77;74.32
48424;BME280;34232;42.502;26.014;2023-03-08T04:46:52;99390.84;;;5.66;75.51
48424;BME280;34232;42.502;26.014;2023-03-08T04:49:18;99397.28;;;5.73;76.03
48424;BME280;34232;42.502;26.014;2023-03-08T04:51:43;99395.78;;;5.81;76.03
48424;BME280;34232;42.502;26.014;2023-03-08T04:54:08;99393.34;;;5.91;75.64
48424;BME280;34232;42.502;26.014;2023-03-08T04:56:34;99409.53;;;5.96;75.39
48424;BME280;34232;42.502;26.014;2023-03-08T04:58:59;99405.03;;;5.98;74.26
48424;BME280;34232;42.502;26.014;2023-03-08T05:01:24;99402.16;;;6.01;73.17
48424;BME280;34232;42.502;26.014;2023-03-08T05:03:50;99411.19;;;5.97;71.92
48424;BME280;34232;42.502;26.014;2023-03-08T05:06:16;99407.03;;;5.94;71.48
48424;BME280;34232;42.502;26.014;2023-03-08T05:08:42;99414.13;;;5.92;71.60
48424;BME280;34232;42.502;26.014;2023-03-08T05:11:07;99413.09;;;5.95;71.75
48424;BME280;34232;42.502;26.014;2023-03-08T05:13:33;99418.09;;;5.98;71.20
48424;BME280;34232;42.502;26.014;2023-03-08T05:15:59;99415.13;;;6.03;70.03
48424;BME280;34232;42.502;26.014;2023-03-08T05:18:25;99415.72;;;6.06;70.21
48424;BME280;34232;42.502;26.014;2023-03-08T05:20:56;99421.88;;;5.94;73.25
48424;BME280;34232;42.502;26.014;2023-03-08T05:23:22;99429.50;;;6.08;73.83
48424;BME280;34232;42.502;26.014;2023-03-08T05:25:50;99428.59;;;6.20;73.18
48424;BME280;34232;42.502;26.014;2023-03-08T05:28:16;99429.06;;;6.14;75.38
48424;BME280;34232;42.502;26.014;2023-03-08T05:30:41;99436.25;;;6.35;74.82
48424;BME280;34232;42.502;26.014;2023-03-08T05:33:06;99435.09;;;6.50;74.82
48424;BME280;34232;42.502;26.014;2023-03-08T05:35:31;99433.47;;;6.60;74.94
48424;BME280;34232;42.502;26.014;2023-03-08T05:37:57;99434.91;;;6.75;74.56
48424;BME280;34232;42.502;26.014;2023-03-08T05:40:22;99431.22;;;6.89;74.81
48424;BME280;34232;42.502;26.014;2023-03-08T05:42:47;99443.00;;;7.06;74.46
48424;BME280;34232;42.502;26.014;2023-03-08T05:45:12;99441.56;;;7.24;73.98
48424;BME280;34232;42.502;26.014;2023-03-08T05:47:38;99441.06;;;7.41;73.72
48424;BME280;34232;42.502;26.014;2023-03-08T05:50:03;99448.19;;;7.50;75.52
48424;BME280;34232;42.502;26.014;2023-03-08T05:52:29;99450.53;;;7.64;76.67
48424;BME280;34232;42.502;26.014;2023-03-08T05:54:55;99452.41;;;7.85;75.97
48424;BME280;34232;42.502;26.014;2023-03-08T05:57:23;99445.66;;;8.03;75.11
48424;BME280;34232;42.502;26.014;2023-03-08T05:59:48;99452.22;;;8.08;74.67
48424;BME280;34232;42.502;26.014;2023-03-08T06:02:13;99450.53;;;8.28;74.48
48424;BME280;34232;42.502;26.014;2023-03-08T06:04:39;99460.38;;;8.47;74.63
48424;BME280;34232;42.502;26.014;2023-03-08T06:07:04;99452.75;;;8.65;73.87
48424;BME280;34232;42.502;26.014;2023-03-08T06:09:29;99456.97;;;8.77;73.84
48424;BME280;34232;42.502;26.014;2023-03-08T06:11:54;99465.28;;;9.03;73.03
48424;BME280;34232;42.502;26.014;2023-03-08T06:14:20;99466.97;;;9.13;73.65
48424;BME280;34232;42.502;26.014;2023-03-08T06:16:45;99464.53;;;9.22;74.04
48424;BME280;34232;42.502;26.014;2023-03-08T06:19:12;99471.34;;;9.34;73.49
48424;BME280;34232;42.502;26.014;2023-03-08T06:21:38;99469.19;;;9.58;73.52
48424;BME280;34232;42.502;26.014;2023-03-08T06:24:03;99473.97;;;9.74;73.00
48424;BME280;34232;42.502;26.014;2023-03-08T06:26:28;99488.09;;;9.92;72.54
48424;BME280;34232;42.502;26.014;2023-03-08T06:28:54;99476.19;;;10.07;71.63
48424;BME280;34232;42.502;26.014;2023-03-08T06:31:19;99477.88;;;10.18;71.47
48424;BME280;34232;42.502;26.014;2023-03-08T06:33:44;99487.88;;;10.24;71.55
48424;BME280;34232;42.502;26.014;2023-03-08T06:36:11;99489.41;;;10.36;69.73
48424;BME280;34232;42.502;26.014;2023-03-08T06:38:37;99486.91;;;10.25;69.21
48424;BME280;34232;42.502;26.014;2023-03-08T06:41:03;99487.03;;;10.24;69.32
48424;BME280;34232;42.502;26.014;2023-03-08T06:43:29;99485.50;;;10.40;67.74
48424;BME280;34232;42.502;26.014;2023-03-08T06:45:54;99498.09;;;10.56;66.99
48424;BME280;34232;42.502;26.014;2023-03-08T06:48:19;99495.34;;;10.67;66.23
48424;BME280;34232;42.502;26.014;2023-03-08T06:50:45;99495.59;;;10.74;66.38
48424;BME280;34232;42.502;26.014;2023-03-08T06:53:10;99500.53;;;10.96;65.64
48424;BME280;34232;42.502;26.014;2023-03-08T06:55:37;99500.66;;;11.04;64.96
48424;BME280;34232;42.502;26.014;2023-03-08T06:58:02;99503.09;;;11.25;63.94
48424;BME280;34232;42.502;26.014;2023-03-08T07:00:28;99499.38;;;11.18;64.54
48424;BME280;34232;42.502;26.014;2023-03-08T07:02:53;99508.63;;;11.32;63.77
48424;BME280;34232;42.502;26.014;2023-03-08T07:05:19;99515.94;;;11.38;63.11
48424;BME280;34232;42.502;26.014;2023-03-08T07:07:44;99520.44;;;11.55;64.34
48424;BME280;34232;42.502;26.014;2023-03-08T07:10:10;99521.47;;;11.81;62.88
48424;BME280;34232;42.502;26.014;2023-03-08T07:12:36;99520.75;;;12.07;61.56
48424;BME280;34232;42.502;26.014;2023-03-08T07:15:06;99514.75;;;12.14;62.76
48424;BME280;34232;42.502;26.014;2023-03-08T07:17:32;99519.88;;;12.16;60.84
48424;BME280;34232;42.502;26.014;2023-03-08T07:19:59;99522.19;;;12.19;60.83
48424;BME280;34232;42.502;26.014;2023-03-08T07:22:25;99520.09;;;12.40;60.69
48424;BME280;34232;42.502;26.014;2023-03-08T07:24:50;99516.38;;;12.69;59.83
48424;BME280;34232;42.502;26.014;2023-03-08T07:27:15;99514.94;;;12.74;59.06
48424;BME280;34232;42.502;26.014;2023-03-08T07:29:40;99523.44;;;12.86;59.02
48424;BME280;34232;42.502;26.014;2023-03-08T07:32:06;99527.22;;;12.83;59.43
48424;BME280;34232;42.502;26.014;2023-03-08T07:34:31;99528.50;;;12.97;60.00
48424;BME280;34232;42.502;26.014;2023-03-08T07:36:56;99527.03;;;13.03;58.71
48424;BME280;34232;42.502;26.014;2023-03-08T07:39:22;99534.13;;;13.02;59.35
48424;BME280;34232;42.502;26.014;2023-03-08T07:41:47;99523.00;;;13.16;59.66
48424;BME280;34232;42.502;26.014;2023-03-08T07:44:13;99526.13;;;13.38;59.85
48424;BME280;34232;42.502;26.014;2023-03-08T07:46:39;99529.31;;;13.49;59.40
48424;BME280;34232;42.502;26.014;2023-03-08T07:49:04;99528.47;;;13.49;59.51
48424;BME280;34232;42.502;26.014;2023-03-08T07:51:34;99526.03;;;13.55;60.04
48424;BME280;34232;42.502;26.014;2023-03-08T07:53:59;99528.97;;;13.86;58.27
48424;BME280;34232;42.502;26.014;2023-03-08T07:56:25;99527.75;;;14.23;57.22
48424;BME280;34232;42.502;26.014;2023-03-08T07:58:50;99532.81;;;14.58;55.42
48424;BME280;34232;42.502;26.014;2023-03-08T08:01:15;99523.53;;;14.70;53.97
48424;BME280;34232;42.502;26.014;2023-03-08T08:03:40;99523.84;;;14.92;54.34
48424;BME280;34232;42.502;26.014;2023-03-08T08:06:06;99519.16;;;15.18;53.38
48424;BME280;34232;42.502;26.014;2023-03-08T08:08:31;99528.13;;;15.01;52.36
48424;BME280;34232;42.502;26.014;2023-03-08T08:10:57;99518.53;;;15.08;52.10
48424;BME280;34232;42.502;26.014;2023-03-08T08:13:22;99517.22;;;15.04;53.26
48424;BME280;34232;42.502;26.014;2023-03-08T08:15:55;99515.84;;;15.16;52.95
48424;BME280;34232;42.502;26.014;2023-03-08T08:18:21;99516.19;;;15.21;52.70
48424;BME280;34232;42.502;26.014;2023-03-08T08:20:46;99513.81;;;15.34;52.32
48424;BME280;34232;42.502;26.014;2023-03-08T08:23:11;99525.34;;;15.66;51.88
48424;BME280;34232;42.502;26.014;2023-03-08T08:25:37;99519.72;;;16.00;51.35
48424;BME280;34232;42.502;26.014;2023-03-08T08:28:03;99517.47;;;16.20;50.39
48424;BME280;34232;42.502;26.014;2023-03-08T08:30:28;99516.81;;;16.18;49.85
48424;BME280;34232;42.502;26.014;2023-03-08T08:32:53;99517.53;;;16.34;49.47
48424;BME280;34232;42.502;26.014;2023-03-08T08:35:18;99517.69;;;16.33;49.16
48424;BME280;34232;42.502;26.014;2023-03-08T08:37:44;99511.75;;;16.31;49.17
48424;BME280;34232;42.502;26.014;2023-03-08T08:40:09;99514.47;;;16.23;49.72
48424;BME280;34232;42.502;26.014;2023-03-08T08:42:36;99508.91;;;16.55;48.72
48424;BME280;34232;42.502;26.014;2023-03-08T08:45:01;99510.53;;;16.56;48.01
48424;BME280;34232;42.502;26.014;2023-03-08T08:47:27;99502.75;;;16.77;47.88
48424;BME280;34232;42.502;26.014;2023-03-08T08:49:52;99507.22;;;17.00;48.19
48424;BME280;34232;42.502;26.014;2023-03-08T08:52:18;99504.81;;;17.05;48.49
48424;BME280;34232;42.502;26.014;2023-03-08T08:54:43;99508.69;;;16.88;50.23
48424;BME280;34232;42.502;26.014;2023-03-08T08:57:08;99507.41;;;17.13;49.30
48424;BME280;34232;42.502;26.014;2023-03-08T08:59:33;99507.53;;;17.20;48.68
48424;BME280;34232;42.502;26.014;2023-03-08T09:01:59;99507.16;;;17.37;48.19
48424;BME280;34232;42.502;26.014;2023-03-08T09:04:24;99500.38;;;17.49;48.58
48424;BME280;34232;42.502;26.014;2023-03-08T09:06:49;99502.56;;;17.17;48.04
48424;BME280;34232;42.502;26.014;2023-03-08T09:09:16;99497.81;;;16.74;49.59
48424;BME280;34232;42.502;26.014;2023-03-08T09:11:42;99495.28;;;16.96;49.64
48424;BME280;34232;42.502;26.014;2023-03-08T09:14:07;99492.91;;;17.01;49.98
48424;BME280;34232;42.502;26.014;2023-03-08T09:16:33;99490.31;;;16.93;49.35
48424;BME280;34232;42.502;26.014;2023-03-08T09:18:59;99494.72;;;16.86;49.75
48424;BME280;34232;42.502;26.014;2023-03-08T09:21:25;99481.94;;;17.04;49.91
48424;BME280;34232;42.502;26.014;2023-03-08T09:23:50;99495.47;;;17.09;49.95
48424;BME280;34232;42.502;26.014;2023-03-08T09:26:16;99499.50;;;17.05;49.79
48424;BME280;34232;42.502;26.014;2023-03-08T09:28:41;99491.34;;;17.21;50.47
48424;BME280;34232;42.502;26.014;2023-03-08T09:31:08;99495.59;;;17.45;49.90
48424;BME280;34232;42.502;26.014;2023-03-08T09:33:40;99494.88;;;17.36;49.61
48424;BME280;34232;42.502;26.014;2023-03-08T09:36:06;99496.50;;;17.81;46.78
48424;BME280;34232;42.502;26.014;2023-03-08T09:38:31;99495.06;;;17.49;48.02
48424;BME280;34232;42.502;26.014;2023-03-08T09:43:28;99489.81;;;17.86;48.83
48424;BME280;34232;42.502;26.014;2023-03-08T09:45:57;99489.63;;;17.58;49.77
48424;BME280;34232;42.502;26.014;2023-03-08T09:48:24;99494.13;;;17.72;49.62
48424;BME280;34232;42.502;26.014;2023-03-08T09:50:54;99491.97;;;17.97;47.57
48424;BME280;34232;42.502;26.014;2023-03-08T09:55:56;99485.13;;;18.66;46.38
48424;BME280;34232;42.502;26.014;2023-03-08T10:01:02;99482.31;;;19.37;44.02
48424;BME280;34232;42.502;26.014;2023-03-08T10:03:31;99486.59;;;19.66;44.00
48424;BME280;34232;42.502;26.014;2023-03-08T10:06:20;99477.41;;;19.40;43.86
48424;BME280;34232;42.502;26.014;2023-03-08T10:08:53;99474.25;;;19.23;44.51
48424;BME280;34232;42.502;26.014;2023-03-08T10:13:50;99478.22;;;18.36;46.37
48424;BME280;34232;42.502;26.014;2023-03-08T10:16:26;99482.16;;;18.18;46.39
48424;BME280;34232;42.502;26.014;2023-03-08T10:21:53;99471.78;;;18.94;44.65
48424;BME280;34232;42.502;26.014;2023-03-08T10:29:46;99465.13;;;19.87;41.44
48424;BME280;34232;42.502;26.014;2023-03-08T10:32:11;99462.72;;;20.12;41.52
48424;BME280;34232;42.502;26.014;2023-03-08T10:34:37;99462.09;;;20.16;41.57
48424;BME280;34232;42.502;26.014;2023-03-08T10:37:04;99451.50;;;20.43;39.41
48424;BME280;34232;42.502;26.014;2023-03-08T10:39:30;99450.09;;;19.86;41.17
48424;BME280;34232;42.502;26.014;2023-03-08T10:41:59;99443.94;;;19.79;40.24
48424;BME280;34232;42.502;26.014;2023-03-08T10:47:17;99427.09;;;19.98;39.57
48424;BME280;34232;42.502;26.014;2023-03-08T10:49:42;99424.25;;;19.93;40.54
48424;BME280;34232;42.502;26.014;2023-03-08T10:52:24;99424.69;;;20.16;39.86
48424;BME280;34232;42.502;26.014;2023-03-08T10:55:00;99428.38;;;20.15;40.24
48424;BME280;34232;42.502;26.014;2023-03-08T10:57:25;99420.84;;;19.65;41.52
48424;BME280;34232;42.502;26.014;2023-03-08T10:59:51;99431.59;;;19.78;41.29
48424;BME280;34232;42.502;26.014;2023-03-08T11:02:17;99425.88;;;20.01;40.91
48424;BME280;34232;42.502;26.014;2023-03-08T11:04:56;99413.38;;;20.21;41.03
48424;BME280;34232;42.502;26.014;2023-03-08T11:07:23;99415.28;;;20.47;40.30
48424;BME280;34232;42.502;26.014;2023-03-08T11:09:49;99414.66;;;20.71;39.64
48424;BME280;34232;42.502;26.014;2023-03-08T11:12:22;99409.94;;;20.60;39.83
48424;BME280;34232;42.502;26.014;2023-03-08T11:14:48;99407.25;;;20.47;40.82
48424;BME280;34232;42.502;26.014;2023-03-08T11:17:14;99407.88;;;20.49;39.28
48424;BME280;34232;42.502;26.014;2023-03-08T11:34:38;99372.19;;;19.15;41.84
48424;BME280;34232;42.502;26.014;2023-03-08T11:39:45;99371.41;;;19.34;39.60
48424;BME280;34232;42.502;26.014;2023-03-08T11:44:50;99371.03;;;19.37;40.90
48424;BME280;34232;42.502;26.014;2023-03-08T11:58:32;99364.84;;;19.30;40.17
48424;BME280;34232;42.502;26.014;2023-03-08T12:01:00;99370.31;;;19.56;39.54
48424;BME280;34232;42.502;26.014;2023-03-08T12:03:33;99367.00;;;19.54;39.41
48424;BME280;34232;42.502;26.014;2023-03-08T12:06:02;99359.66;;;19.70;38.85
48424;BME280;34232;42.502;26.014;2023-03-08T12:10:59;99356.19;;;19.15;39.76
48424;BME280;34232;42.502;26.014;2023-03-08T12:13:35;99352.88;;;19.13;40.03
48424;BME280;34232;42.502;26.014;2023-03-08T12:16:07;99350.94;;;19.41;39.23
48424;BME280;34232;42.502;26.014;2023-03-08T12:23:50;99349.41;;;19.73;38.01
48424;BME280;34232;42.502;26.014;2023-03-08T12:26:28;99339.94;;;19.84;37.31
48424;BME280;34232;42.502;26.014;2023-03-08T12:28:57;99346.75;;;20.00;36.53
48424;BME280;34232;42.502;26.014;2023-03-08T12:33:49;99343.69;;;20.22;35.95
48424;BME280;34232;42.502;26.014;2023-03-08T12:36:15;99333.00;;;20.09;36.10
48424;BME280;34232;42.502;26.014;2023-03-08T12:38:42;99331.91;;;19.71;35.90
48424;BME280;34232;42.502;26.014;2023-03-08T12:41:28;99328.03;;;19.86;36.46
48424;BME280;34232;42.502;26.014;2023-03-08T12:44:02;99328.06;;;19.93;35.41
48424;BME280;34232;42.502;26.014;2023-03-08T12:46:42;99326.22;;;20.07;35.13
48424;BME280;34232;42.502;26.014;2023-03-08T12:49:17;99330.09;;;19.84;35.54
48424;BME280;34232;42.502;26.014;2023-03-08T12:51:42;99330.41;;;19.48;35.52
48424;BME280;34232;42.502;26.014;2023-03-08T12:54:15;99326.34;;;19.52;35.66
48424;BME280;34232;42.502;26.014;2023-03-08T12:56:48;99312.25;;;19.24;36.29
48424;BME280;34232;42.502;26.014;2023-03-08T13:01:41;99318.47;;;19.31;36.60
48424;BME280;34232;42.502;26.014;2023-03-08T13:09:35;99301.63;;;19.37;34.11
48424;BME280;34232;42.502;26.014;2023-03-08T13:19:50;99294.75;;;19.82;30.93
48424;BME280;34232;42.502;26.014;2023-03-08T13:22:18;99303.34;;;19.58;31.12
48424;BME280;34232;42.502;26.014;2023-03-08T13:24:46;99292.38;;;19.33;31.32
48424;BME280;34232;42.502;26.014;2023-03-08T13:29:43;99287.63;;;19.22;33.38
48424;BME280;34232;42.502;26.014;2023-03-08T13:32:18;99281.38;;;19.02;33.26
48424;BME280;34232;42.502;26.014;2023-03-08T13:34:44;99274.88;;;19.11;33.12
48424;BME280;34232;42.502;26.014;2023-03-08T13:37:25;99278.56;;;19.16;33.40
48424;BME280;34232;42.502;26.014;2023-03-08T13:39:52;99277.78;;;19.36;32.56
48424;BME280;34232;42.502;26.014;2023-03-08T13:42:18;99276.56;;;19.38;31.55
48424;BME280;34232;42.502;26.014;2023-03-08T13:44:48;99288.88;;;19.33;31.02
48424;BME280;34232;42.502;26.014;2023-03-08T13:47:23;99279.81;;;19.20;31.01
48424;BME280;34232;42.502;26.014;2023-03-08T13:49:50;99283.28;;;19.08;31.13
48424;BME280;34232;42.502;26.014;2023-03-08T13:52:18;99274.97;;;18.83;30.96
48424;BME280;34232;42.502;26.014;2023-03-08T13:54:52;99278.03;;;18.86;31.20
48424;BME280;34232;42.502;26.014;2023-03-08T13:57:22;99285.88;;;18.95;30.78
48424;BME280;34232;42.502;26.014;2023-03-08T13:59:58;99277.31;;;19.06;31.31
48424;BME280;34232;42.502;26.014;2023-03-08T14:02:25;99276.94;;;19.22;30.24
48424;BME280;34232;42.502;26.014;2023-03-08T14:04:51;99278.53;;;19.03;30.38
48424;BME280;34232;42.502;26.014;2023-03-08T14:10:02;99281.88;;;19.25;29.88
48424;BME280;34232;42.502;26.014;2023-03-08T14:12:28;99269.94;;;19.08;29.08
48424;BME280;34232;42.502;26.014;2023-03-08T14:14:56;99283.66;;;19.05;29.91
48424;BME280;34232;42.502;26.014;2023-03-08T14:17:24;99285.16;;;19.20;29.94
48424;BME280;34232;42.502;26.014;2023-03-08T14:19:55;99274.50;;;19.27;29.98